createdAt,value
2022-10-02T00:00:32.972Z,5.50
2022-10-02T00:03:12.219Z,5.47
2022-10-02T00:05:43.448Z,5.20
2022-10-02T00:08:24.317Z,5.10
2022-10-02T00:11:06.365Z,5.18
2022-10-02T00:13:46.583Z,5.93
2022-10-02T00:16:24.407Z,4.88
2022-10-02T00:18:51.147Z,5.18
2022-10-02T00:21:34.958Z,4.30
2022-10-02T00:24:03.854Z,4.75
2022-10-02T00:26:57.489Z,4.38
2022-10-02T00:29:40.702Z,4.60
2022-10-02T00:32:31.132Z,4.35
2022-10-02T00:35:16.248Z,4.15
2022-10-02T00:38:27.508Z,4.03
2022-10-02T00:41:12.218Z,3.53
2022-10-02T00:44:15.270Z,3.83
2022-10-02T00:46:55.181Z,3.95
2022-10-02T00:49:36.977Z,4.03
2022-10-02T00:52:12.650Z,3.63
2022-10-02T00:54:56.633Z,3.70
2022-10-02T00:57:43.982Z,3.92
2022-10-02T01:00:18.430Z,3.60
2022-10-02T01:02:55.253Z,3.95
2022-10-02T01:05:21.952Z,3.72
2022-10-02T01:07:51.233Z,4.95
2022-10-02T01:10:17.867Z,4.35
2022-10-02T01:12:44.975Z,4.60
2022-10-02T01:15:16.946Z,4.00
2022-10-02T01:17:43.502Z,4.55
2022-10-02T01:20:19.539Z,4.05
2022-10-02T01:22:52.274Z,4.78
2022-10-02T01:25:18.751Z,4.55
2022-10-02T01:27:45.345Z,3.45
2022-10-02T01:30:15.968Z,4.45
2022-10-02T01:33:00.671Z,3.53
2022-10-02T01:35:31.588Z,3.55
2022-10-02T01:37:59.564Z,3.63
2022-10-02T01:40:31.887Z,3.05
2022-10-02T01:43:07.966Z,3.50
2022-10-02T01:45:51.679Z,3.08
2022-10-02T01:48:36.718Z,3.08
2022-10-02T01:51:11.162Z,3.55
2022-10-02T01:54:02.376Z,3.75
2022-10-02T01:57:02.822Z,3.22
2022-10-02T01:59:54.053Z,3.08
2022-10-02T02:02:32.120Z,3.95
2022-10-02T02:05:16.934Z,3.72
2022-10-02T02:08:00.894Z,4.10
2022-10-02T02:10:41.250Z,4.45
2022-10-02T02:13:16.157Z,3.47
2022-10-02T02:15:54.732Z,3.38
2022-10-02T02:18:28.074Z,3.80
2022-10-02T02:20:59.230Z,3.20
2022-10-02T02:23:29.489Z,4.80
2022-10-02T02:26:03.274Z,3.22
2022-10-02T02:30:58.114Z,3.92
2022-10-02T02:33:28.242Z,3.97
2022-10-02T02:35:58.174Z,3.80
2022-10-02T02:38:30.337Z,3.47
2022-10-02T02:41:01.581Z,3.30
2022-10-02T02:43:32.770Z,3.55
2022-10-02T02:46:05.780Z,4.07
2022-10-02T02:48:44.841Z,3.92
2022-10-02T02:51:22.398Z,3.58
2022-10-02T02:54:13.350Z,3.38
2022-10-02T02:56:41.918Z,3.08
2022-10-02T02:59:13.678Z,4.15
2022-10-02T03:01:41.130Z,3.30
2022-10-02T03:04:11.305Z,3.42
2022-10-02T03:06:40.413Z,3.75
2022-10-02T03:09:10.406Z,2.90
2022-10-02T03:11:58.595Z,3.67
2022-10-02T03:14:59.323Z,3.38
2022-10-02T03:17:59.308Z,2.58
2022-10-02T03:20:42.123Z,2.67
2022-10-02T03:23:22.086Z,2.40
2022-10-02T03:25:53.677Z,2.42
2022-10-02T03:28:54.458Z,2.30
2022-10-02T03:31:19.428Z,2.33
2022-10-02T03:33:46.569Z,2.50
2022-10-02T03:36:14.217Z,2.88
2022-10-02T03:38:41.998Z,2.17
2022-10-02T03:41:08.778Z,2.15
2022-10-02T03:43:35.219Z,2.40
2022-10-02T03:46:01.807Z,2.35
2022-10-02T03:48:28.271Z,2.67
2022-10-02T03:50:54.748Z,2.13
2022-10-02T03:53:23.225Z,2.60
2022-10-02T03:55:54.476Z,2.05
2022-10-02T03:58:21.744Z,2.47
2022-10-02T04:00:59.450Z,2.13
2022-10-02T04:03:29.242Z,1.83
2022-10-02T04:06:31.841Z,2.17
2022-10-02T04:09:03.534Z,2.95
2022-10-02T04:11:33.467Z,2.10
2022-10-02T04:14:07.238Z,2.67
2022-10-02T04:19:24.714Z,2.13
2022-10-02T04:22:28.027Z,2.33
2022-10-02T04:25:05.565Z,3.80
2022-10-02T04:27:38.860Z,2.50
2022-10-02T04:30:14.766Z,2.50
2022-10-02T04:32:41.260Z,2.45
2022-10-02T04:35:25.697Z,2.40
2022-10-02T04:38:04.409Z,3.45
2022-10-02T04:41:10.028Z,3.28
2022-10-02T04:43:54.048Z,3.17
2022-10-02T04:49:16.745Z,3.25
2022-10-02T04:51:55.405Z,2.80
2022-10-02T04:54:57.667Z,3.80
2022-10-02T04:57:42.938Z,4.13
2022-10-02T05:00:11.763Z,4.03
2022-10-02T05:03:01.731Z,3.63
2022-10-02T05:06:02.121Z,4.00
2022-10-02T05:08:37.684Z,3.97
2022-10-02T05:11:09.332Z,3.78
2022-10-02T05:13:53.950Z,3.25
2022-10-02T05:16:54.069Z,4.35
2022-10-02T05:19:47.171Z,3.35
2022-10-02T05:22:19.093Z,3.50
2022-10-02T05:25:06.930Z,3.38
2022-10-02T05:27:50.483Z,3.45
2022-10-02T05:30:18.720Z,3.92
2022-10-02T05:33:03.638Z,3.70
2022-10-02T05:35:44.902Z,3.65
2022-10-02T05:38:29.159Z,4.15
2022-10-02T05:41:11.241Z,5.03
2022-10-02T05:44:13.999Z,5.35
2022-10-02T05:46:51.509Z,4.60
2022-10-02T05:49:20.842Z,4.43
2022-10-02T05:52:11.802Z,3.35
2022-10-02T05:55:00.132Z,3.92
2022-10-02T05:57:42.548Z,3.80
2022-10-02T06:00:14.919Z,3.90
2022-10-02T06:02:48.491Z,3.60
2022-10-02T06:05:24.220Z,3.33
2022-10-02T06:07:54.665Z,4.60
2022-10-02T06:10:29.321Z,4.55
2022-10-02T06:13:02.218Z,3.63
2022-10-02T06:15:51.367Z,3.55
2022-10-02T06:18:20.995Z,3.30
2022-10-02T06:20:56.578Z,3.55
2022-10-02T06:23:39.093Z,3.83
2022-10-02T06:26:25.960Z,4.88
2022-10-02T06:29:19.814Z,3.95
2022-10-02T06:31:58.243Z,4.28
2022-10-02T06:34:25.197Z,3.63
2022-10-02T06:37:03.592Z,3.47
2022-10-02T06:39:45.906Z,3.72
2022-10-02T06:42:40.065Z,5.18
2022-10-02T06:45:39.058Z,4.07
2022-10-02T06:48:38.078Z,3.50
2022-10-02T06:51:18.702Z,4.30
2022-10-02T06:54:11.791Z,4.13
2022-10-02T06:57:04.565Z,3.42
2022-10-02T06:59:43.193Z,4.00
2022-10-02T07:02:32.435Z,3.90
2022-10-02T07:05:17.069Z,3.72
2022-10-02T07:08:05.123Z,3.78
2022-10-02T07:10:43.409Z,3.78
2022-10-02T07:13:17.858Z,3.70
2022-10-02T07:16:09.071Z,3.85
2022-10-02T07:18:53.659Z,4.25
2022-10-02T07:21:40.322Z,3.38
2022-10-02T07:24:29.342Z,4.05
2022-10-02T07:27:03.626Z,3.72
2022-10-02T07:29:41.070Z,4.15
2022-10-02T07:32:10.913Z,3.47
2022-10-02T07:34:53.758Z,3.67
2022-10-02T07:37:45.069Z,3.63
2022-10-02T07:40:23.812Z,3.78
2022-10-02T07:43:00.521Z,2.90
2022-10-02T07:45:39.598Z,3.40
2022-10-02T07:48:45.166Z,3.33
2022-10-02T07:51:49.630Z,2.90
2022-10-02T07:56:44.590Z,3.60
2022-10-02T07:59:13.348Z,3.67
2022-10-02T08:01:41.380Z,3.13
2022-10-02T08:04:07.791Z,3.92
2022-10-02T08:06:34.832Z,4.45
2022-10-02T08:09:11.189Z,3.22
2022-10-02T08:11:49.221Z,4.18
2022-10-02T08:14:23.726Z,3.47
2022-10-02T08:16:55.146Z,4.20
2022-10-02T08:19:29.997Z,2.88
2022-10-02T08:22:00.270Z,3.13
2022-10-02T08:24:33.158Z,3.13
2022-10-02T08:27:08.301Z,2.97
2022-10-02T08:29:44.537Z,3.65
2022-10-02T08:32:12.828Z,3.25
2022-10-02T08:34:41.371Z,3.33
2022-10-02T08:37:29.277Z,3.83
2022-10-02T08:40:33.439Z,3.75
2022-10-02T08:43:10.595Z,3.72
2022-10-02T08:45:54.571Z,2.70
2022-10-02T08:51:13.429Z,3.33
2022-10-02T08:54:03.112Z,2.63
2022-10-02T08:56:32.468Z,3.03
2022-10-02T08:59:25.908Z,3.28
2022-10-02T09:02:27.564Z,2.60
2022-10-02T09:05:18.681Z,2.78
2022-10-02T09:08:16.526Z,3.00
2022-10-02T09:11:02.136Z,2.92
2022-10-02T09:13:40.097Z,2.65
2022-10-02T09:16:09.939Z,3.17
2022-10-02T09:19:03.808Z,2.25
2022-10-02T09:21:48.566Z,2.55
2022-10-02T09:24:43.196Z,2.42
2022-10-02T09:27:40.236Z,2.40
2022-10-02T09:30:43.393Z,3.03
2022-10-02T09:33:39.193Z,2.72
2022-10-02T09:36:28.303Z,3.10
2022-10-02T09:39:09.938Z,2.65
2022-10-02T09:42:02.410Z,2.42
2022-10-02T09:44:43.706Z,2.25
2022-10-02T09:47:19.779Z,2.22
2022-10-02T09:50:00.511Z,2.90
2022-10-02T09:52:42.826Z,2.90
2022-10-02T09:55:36.613Z,2.55
2022-10-02T09:58:06.154Z,3.10
2022-10-02T10:01:30.131Z,2.85
2022-10-02T10:05:04.022Z,3.50
2022-10-02T10:07:33.955Z,2.25
2022-10-02T10:10:25.279Z,3.25
2022-10-02T10:13:12.272Z,2.25
2022-10-02T10:16:25.647Z,2.40
2022-10-02T10:19:11.118Z,2.83
2022-10-02T10:21:46.389Z,2.50
2022-10-02T10:24:23.214Z,1.92
2022-10-02T10:27:21.402Z,3.88
2022-10-02T10:30:10.030Z,2.63
2022-10-02T10:33:06.105Z,2.40
2022-10-02T10:35:38.742Z,29.65
2022-10-02T10:38:23.806Z,6.10
2022-10-02T10:41:02.349Z,3.22
2022-10-02T10:43:50.391Z,3.28
2022-10-02T10:46:34.622Z,2.25
2022-10-02T10:49:47.564Z,2.38
2022-10-02T10:52:32.839Z,2.50
2022-10-02T10:55:12.318Z,5.85
2022-10-02T10:58:05.316Z,3.03
2022-10-02T11:00:47.818Z,5.65
2022-10-02T11:03:46.454Z,3.53
2022-10-02T11:06:29.961Z,2.85
2022-10-02T11:09:14.654Z,3.65
2022-10-02T11:12:12.730Z,4.57
2022-10-02T11:15:00.182Z,3.15
2022-10-02T11:17:41.863Z,2.55
2022-10-02T11:20:45.759Z,2.45
2022-10-02T11:23:25.153Z,4.25
2022-10-02T11:25:59.573Z,2.78
2022-10-02T11:28:47.916Z,2.40
2022-10-02T11:31:33.274Z,2.20
2022-10-02T11:34:40.234Z,2.42
2022-10-02T11:37:25.589Z,2.22
2022-10-02T11:40:14.045Z,2.50
2022-10-02T11:42:55.897Z,2.50
2022-10-02T11:45:38.295Z,2.58
2022-10-02T11:48:22.071Z,2.20
2022-10-02T11:50:59.707Z,3.45
2022-10-02T11:53:44.854Z,2.85
2022-10-02T11:56:33.842Z,3.10
2022-10-02T11:59:28.262Z,3.28
2022-10-02T12:02:04.534Z,2.78
2022-10-02T12:04:40.624Z,2.75
2022-10-02T12:07:48.035Z,3.70
2022-10-02T12:10:20.543Z,2.55
2022-10-02T12:13:15.098Z,2.60
2022-10-02T12:16:03.536Z,2.60
2022-10-02T12:18:49.336Z,2.92
2022-10-02T12:21:55.394Z,2.50
2022-10-02T12:24:44.591Z,2.58
2022-10-02T12:27:32.827Z,2.30
2022-10-02T12:30:01.214Z,3.10
2022-10-02T12:32:38.424Z,2.92
2022-10-02T12:35:23.855Z,2.28
2022-10-02T12:38:01.442Z,2.60
2022-10-02T12:40:31.825Z,2.15
2022-10-02T12:43:35.469Z,2.03
2022-10-02T12:46:19.565Z,2.10
2022-10-02T12:49:19.843Z,2.30
2022-10-02T12:52:28.114Z,2.78
2022-10-02T12:55:28.698Z,2.67
2022-10-02T12:58:03.405Z,2.53
2022-10-02T13:00:52.188Z,2.17
2022-10-02T13:03:33.785Z,3.13
2022-10-02T13:06:29.741Z,2.08
2022-10-02T13:09:11.342Z,2.50
2022-10-02T13:12:10.973Z,2.38
2022-10-02T13:15:06.662Z,2.67
2022-10-02T13:18:07.347Z,3.33
2022-10-02T13:20:37.892Z,10.55
2022-10-02T13:24:01.884Z,6.45
2022-10-02T13:26:46.121Z,55.60
2022-10-02T13:29:44.049Z,33.72
2022-10-02T13:32:31.543Z,42.22
2022-10-02T13:35:20.918Z,15.85
2022-10-02T13:38:09.165Z,15.23
2022-10-02T13:40:59.070Z,17.98
2022-10-02T13:43:50.206Z,20.75
2022-10-02T13:46:29.636Z,20.42
2022-10-02T13:49:01.992Z,16.70
2022-10-02T13:51:28.342Z,13.15
2022-10-02T13:54:37.670Z,21.85
2022-10-02T13:57:35.082Z,27.75
2022-10-02T14:00:22.598Z,12.00
2022-10-02T14:03:01.308Z,7.53
2022-10-02T14:05:49.377Z,22.58
2022-10-02T14:08:26.855Z,9.02
2022-10-02T14:11:11.849Z,6.72
2022-10-02T14:14:03.956Z,13.27
2022-10-02T14:16:45.644Z,5.22
2022-10-02T14:19:52.635Z,8.80
2022-10-02T14:22:47.034Z,4.00
2022-10-02T14:25:46.054Z,2.83
2022-10-02T14:28:40.998Z,4.10
2022-10-02T14:31:16.462Z,3.10
2022-10-02T14:34:16.837Z,13.90
2022-10-02T14:36:57.089Z,13.45
2022-10-02T14:39:32.245Z,10.48
2022-10-02T14:42:29.954Z,20.75
2022-10-02T14:45:27.167Z,6.68
2022-10-02T14:48:30.750Z,11.07
2022-10-02T14:51:05.241Z,13.57
2022-10-02T14:53:49.407Z,12.40
2022-10-02T14:56:44.074Z,3.10
2022-10-02T14:59:10.450Z,7.80
2022-10-02T15:01:45.142Z,4.20
2022-10-02T15:04:47.184Z,7.00
2022-10-02T15:07:22.002Z,4.30
2022-10-02T15:10:03.119Z,3.92
2022-10-02T15:12:35.497Z,3.10
2022-10-02T15:15:41.208Z,3.07
2022-10-02T15:18:38.583Z,3.35
2022-10-02T15:21:28.213Z,3.08
2022-10-02T15:23:56.890Z,2.72
2022-10-02T15:26:36.110Z,2.30
2022-10-02T15:29:31.068Z,2.58
2022-10-02T15:32:28.488Z,2.30
2022-10-02T15:35:11.449Z,2.35
2022-10-02T15:37:47.946Z,2.72
2022-10-02T15:40:47.251Z,3.08
2022-10-02T15:43:16.366Z,2.67
2022-10-02T15:45:48.634Z,2.92
2022-10-02T15:48:27.355Z,2.35
2022-10-02T15:51:15.883Z,2.80
2022-10-02T15:54:20.097Z,3.88
2022-10-02T15:57:08.702Z,2.63
2022-10-02T15:59:57.103Z,2.45
2022-10-02T16:02:35.909Z,2.25
2022-10-02T16:05:15.469Z,2.78
2022-10-02T16:08:20.126Z,4.07
2022-10-02T16:11:12.374Z,8.75
2022-10-02T16:13:40.499Z,4.22
2022-10-02T16:16:42.612Z,5.07
2022-10-02T16:19:51.158Z,5.63
2022-10-02T16:22:23.230Z,3.55
2022-10-02T16:25:08.497Z,2.75
2022-10-02T16:27:55.605Z,3.53
2022-10-02T16:30:24.101Z,3.83
2022-10-02T16:33:19.022Z,4.18
2022-10-02T16:35:51.561Z,3.05
2022-10-02T16:38:29.064Z,4.68
2022-10-02T16:41:03.259Z,3.95
2022-10-02T16:43:58.743Z,4.05
2022-10-02T16:46:32.100Z,3.60
2022-10-02T16:49:24.839Z,3.92
2022-10-02T16:52:19.237Z,4.10
2022-10-02T16:54:51.942Z,5.40
2022-10-02T16:57:45.278Z,4.23
2022-10-02T17:00:53.852Z,4.55
2022-10-02T17:03:38.705Z,3.35
2022-10-02T17:06:18.321Z,3.63
2022-10-02T17:09:09.634Z,3.20
2022-10-02T17:11:52.922Z,2.95
2022-10-02T17:14:43.125Z,4.85
2022-10-02T17:17:23.939Z,2.80
2022-10-02T17:19:54.282Z,7.53
2022-10-02T17:22:33.097Z,11.93
2022-10-02T17:25:26.950Z,5.45
2022-10-02T17:28:06.252Z,3.15
2022-10-02T17:31:06.170Z,2.60
2022-10-02T17:33:56.582Z,2.97
2022-10-02T17:36:36.647Z,3.47
2022-10-02T17:39:18.519Z,3.00
2022-10-02T17:41:53.487Z,2.55
2022-10-02T17:45:07.422Z,2.60
2022-10-02T17:48:07.071Z,2.25
2022-10-02T17:50:40.278Z,2.78
2022-10-02T17:53:46.800Z,2.55
2022-10-02T17:56:36.104Z,3.13
2022-10-02T17:59:33.390Z,2.05
2022-10-02T18:02:30.709Z,2.80
2022-10-02T18:05:18.002Z,3.28
2022-10-02T18:08:21.906Z,3.45
2022-10-02T18:10:58.004Z,3.45
2022-10-02T18:13:33.430Z,2.70
2022-10-02T18:16:02.951Z,3.00
2022-10-02T19:25:20.304Z,3.10
2022-10-02T19:27:54.337Z,3.08
2022-10-02T19:30:25.324Z,2.75
2022-10-02T19:32:53.738Z,3.53
2022-10-02T19:35:25.565Z,2.60
2022-10-02T19:37:53.579Z,2.70
2022-10-02T19:40:25.246Z,3.08
2022-10-02T19:43:06.211Z,2.55
2022-10-02T19:45:34.370Z,3.25
2022-10-02T19:48:06.196Z,3.00
2022-10-02T19:50:42.350Z,2.83
2022-10-02T19:53:29.881Z,2.65
2022-10-02T19:56:03.209Z,2.90
2022-10-02T19:58:36.109Z,3.30
2022-10-02T20:01:05.585Z,4.13
2022-10-02T20:03:32.475Z,3.00
2022-10-02T20:06:01.047Z,2.97
2022-10-02T20:08:38.491Z,2.83
2022-10-02T20:11:13.762Z,3.85
2022-10-02T20:13:54.961Z,4.43
2022-10-02T20:16:42.128Z,4.40
2022-10-02T20:19:18.646Z,3.78
2022-10-02T20:21:48.781Z,3.13
2022-10-02T20:24:37.250Z,3.08
2022-10-02T20:27:10.187Z,2.13
2022-10-02T20:29:45.867Z,2.53
2022-10-02T20:32:34.911Z,2.55
2022-10-02T20:35:18.992Z,3.50
2022-10-02T20:37:46.163Z,2.60
2022-10-02T20:40:16.907Z,2.28
2022-10-02T20:42:48.769Z,2.45
2022-10-02T20:45:16.026Z,2.33
2022-10-02T20:48:04.349Z,2.83
2022-10-02T20:50:40.460Z,2.78
2022-10-02T20:53:29.957Z,2.65
2022-10-02T20:55:59.854Z,3.40
2022-10-02T20:58:52.595Z,3.15
2022-10-02T21:01:31.678Z,2.22
2022-10-02T21:04:42.570Z,3.03
2022-10-02T21:07:24.579Z,3.15
2022-10-02T21:10:09.775Z,2.63
2022-10-02T21:12:45.207Z,3.30
2022-10-02T21:15:17.698Z,2.85
2022-10-02T21:18:22.834Z,2.00
2022-10-02T21:21:22.234Z,2.50
2022-10-02T21:24:19.689Z,2.38
2022-10-02T21:27:29.824Z,2.70
2022-10-02T21:30:17.290Z,2.55
2022-10-02T21:32:57.036Z,2.55
2022-10-02T21:35:46.080Z,2.65
2022-10-02T21:38:43.019Z,2.92
2022-10-02T21:41:22.620Z,2.65
2022-10-02T21:44:25.898Z,3.15
2022-10-02T21:47:27.648Z,2.75
2022-10-02T21:50:31.602Z,2.97
2022-10-02T21:53:19.726Z,3.35
2022-10-02T21:56:01.327Z,2.67
2022-10-02T21:58:52.454Z,2.63
2022-10-02T22:01:42.672Z,2.58
2022-10-02T22:04:37.863Z,3.35
2022-10-02T22:07:15.675Z,3.20
2022-10-02T22:09:54.690Z,3.33
2022-10-02T22:12:46.079Z,2.78
2022-10-02T22:15:54.490Z,2.72
2022-10-02T22:18:39.225Z,2.95
2022-10-02T22:21:26.769Z,2.42
2022-10-02T22:24:25.814Z,3.30
2022-10-02T22:27:10.698Z,2.42
2022-10-02T22:29:54.075Z,2.50
2022-10-02T22:33:13.106Z,2.60
2022-10-02T22:35:53.713Z,3.10
2022-10-02T22:38:22.961Z,2.65
2022-10-02T22:40:54.062Z,3.10
2022-10-02T22:43:46.555Z,2.58
2022-10-02T22:46:40.928Z,2.45
2022-10-02T22:49:32.709Z,2.50
2022-10-02T22:52:00.492Z,2.63
2022-10-02T22:54:40.181Z,2.67
2022-10-02T22:57:37.482Z,1.98
2022-10-02T23:00:17.601Z,2.63
2022-10-02T23:02:55.563Z,2.35
2022-10-02T23:05:27.314Z,2.60
2022-10-02T23:07:59.964Z,2.88
2022-10-02T23:10:35.778Z,2.05
2022-10-02T23:13:06.001Z,2.45
2022-10-02T23:15:41.730Z,2.55
2022-10-02T23:18:25.180Z,2.42
2022-10-02T23:21:02.414Z,2.88
2022-10-02T23:23:34.121Z,2.30
2022-10-02T23:26:08.078Z,2.58
2022-10-02T23:28:44.807Z,2.25
2022-10-02T23:31:30.238Z,2.13
2022-10-02T23:34:21.486Z,2.13
2022-10-02T23:36:55.886Z,2.42
2022-10-02T23:39:29.577Z,2.72
2022-10-02T23:44:47.260Z,2.17
2022-10-02T23:47:48.914Z,2.85
2022-10-02T23:50:22.678Z,2.42
2022-10-02T23:53:11.389Z,1.95
2022-10-02T23:56:25.521Z,2.75
2022-10-02T23:59:13.611Z,2.50
